Latest Weather Observations for Camooweal

IDQ60801

Issued at 11:32 pm EST Monday 25 January 2021 (issued every 10 minutes, with the page automatically refreshed every 10 minutes)

About weather observations | Map of weather stations | Latest weather observations for QLD | Other Formats
Station Details ID: 037010 Name: CAMOOWEAL TOWNSHIP Lat: -19.92 Lon: 138.12 Height: 231.2 m
Data from the previous 72 hours. | See also: Recent months at Camooweal
Date/Time
EST
Temp
°C
App
Temp
°C
Dew
Point
°C
Rel
Hum
%
Delta-T
°C
Wind Press
QNH
hPa
Press
MSL
hPa
Rain since
9am
mm
Dir  Spd
km/h
Gust
km/h
Spd
kts
Gust
kts
25/11:30pm 31.9 32.5 19.5 47 8.2 N 15 22 8 12 1004.8 1003.0 0.0
25/11:00pm 32.3 32.9 20.2 48 8.1 NNE 17 26 9 14 1004.6 1002.8 0.0
25/10:30pm 32.8 33.1 19.7 46 8.7 NNE 17 24 9 13 1004.5 1002.7 0.0
25/10:00pm 33.6 33.6 18.1 39 10.1 N 15 26 8 14 1004.3 1002.5 0.0
25/09:30pm 33.7 34.2 17.4 37 10.5 N 11 15 6 8 1003.7 1001.9 0.0
25/09:00pm 33.9 34.3 17.2 37 10.8 N 11 15 6 8 1003.5 1001.7 0.0
25/08:30pm 34.4 34.0 16.3 34 11.6 N 13 17 7 9 1003.1 1001.3 0.0
25/08:00pm 35.1 34.8 16.4 32 12.0 N 13 20 7 11 1002.8 1000.9 0.0
25/07:30pm 35.6 35.1 15.9 31 12.6 NNE 13 20 7 11 1002.5 1000.6 0.0
25/07:00pm 36.3 36.4 15.4 28 13.3 NNE 9 13 5 7 1002.3 1000.4 0.0
25/06:30pm 36.9 36.6 15.4 28 13.7 NNE 11 22 6 12 1002.1 1000.2 0.0
25/06:00pm 37.4 36.3 15.2 26 14.1 N 15 22 8 12 1001.8 999.9 0.0
25/05:30pm 37.2 36.0 15.1 27 14.0 NNE 15 26 8 14 1001.8 999.9 0.0
25/05:00pm 37.4 35.9 15.2 26 14.1 NNE 17 26 9 14 1002.1 1000.2 0.0
25/04:30pm 37.3 35.8 15.2 27 14.0 N 17 28 9 15 1002.3 1000.4 0.0
25/04:00pm 37.2 36.4 15.1 27 14.0 NNE 13 24 7 13 1002.7 1000.8 0.0
25/03:30pm 37.8 36.8 16.7 29 13.7 N 17 28 9 15 1003.1 1001.3 0.0
25/03:00pm 37.0 36.5 16.0 28 13.5 N 13 24 7 13 1003.4 1001.6 0.0
25/02:30pm 36.8 35.5 15.8 28 13.4 NNE 17 30 9 16 1003.8 1002.0 0.0
25/02:00pm 36.5 35.7 16.1 29 13.1 N 15 28 8 15 1004.2 1002.4 0.0
25/01:30pm 36.6 36.2 16.2 29 13.1 N 13 24 7 13 1004.6 1002.8 0.0
25/01:00pm 36.3 35.6 16.5 31 12.8 N 15 24 8 13 1005.0 1003.2 0.0
25/12:30pm 36.6 36.4 16.7 30 12.9 N 13 22 7 12 1005.3 1003.5 0.0
25/12:00pm 35.5 35.5 16.3 32 12.3 N 11 17 6 9 1005.7 1003.9 0.0
25/11:30am 34.6 34.1 16.0 33 11.8 N 13 20 7 11 1006.3 1004.4 0.0
25/11:00am 34.2 35.2 19.4 41 9.9 N 13 20 7 11 1006.7 1004.8 0.0
25/10:30am 32.5 34.5 20.7 49 8.0 N 11 17 6 9 1006.9 1005.0 0.0
25/10:00am 32.2 33.8 20.8 51 7.7 N 13 17 7 9 1007.2 1005.4 0.0
25/09:30am 31.3 33.6 22.0 57 6.4 N 13 17 7 9 1007.4 1005.6 0.0
25/09:00am 30.1 32.4 22.0 62 5.5 N 13 19 7 10 1007.6 1005.8 0.0
25/08:30am 29.2 31.7 22.4 66 4.6 NNW 13 17 7 9 1007.5 1005.7 0.0
25/08:00am 28.2 31.4 23.1 74 3.5 NNW 11 15 6 8 1007.3 1005.5 0.0
25/07:30am 27.8 31.2 22.7 74 3.5 N 9 11 5 6 1007.0 1005.2 0.0
25/07:00am 26.8 30.6 22.4 77 3.0 N 6 9 3 5 1006.7 1004.8 0.0
25/06:30am 26.5 30.0 22.1 77 3.0 N 7 9 4 5 1006.4 1004.5 0.0
25/06:00am 26.8 29.8 22.0 75 3.3 N 9 9 5 5 1005.9 1004.1 0.0
25/05:30am 27.1 30.2 22.1 74 3.4 N 9 11 5 6 1005.4 1003.6 0.0
25/05:00am 27.3 30.3 22.0 73 3.6 N 9 13 5 7 1005.2 1003.4 0.0
25/04:30am 27.6 30.3 22.1 72 3.7 N 11 13 6 7 1005.2 1003.4 0.0
25/04:00am 28.2 30.8 22.0 69 4.2 N 11 15 6 8 1005.3 1003.5 0.0
25/03:30am 28.5 30.8 21.3 65 4.8 N 11 15 6 8 1005.4 1003.6 0.0
25/03:00am 28.7 30.1 20.4 60 5.5 N 13 17 7 9 1005.4 1003.6 0.0
25/02:30am 29.1 30.3 20.0 58 6.0 N 13 17 7 9 1005.6 1003.8 0.0
25/02:00am 29.6 30.7 19.6 55 6.6 N 13 17 7 9 1005.7 1003.9 0.0
25/01:30am 30.1 30.7 19.5 53 7.0 NNE 15 20 8 11 1005.7 1003.9 0.0
25/01:00am 30.5 31.9 19.5 51 7.3 NNE 11 15 6 8 1006.2 1004.3 0.0
25/12:30am 30.9 32.0 19.6 51 7.5 NNE 13 19 7 10 1006.5 1004.6 0.0
25/12:00am 31.5 32.1 19.5 49 8.0 NNE 15 20 8 11 1006.5 1004.6 0.0
 
Date/Time
EST
Temp
°C
App
Temp
°C
Dew
Point
°C
Rel
Hum
%
Delta-T
°C
Wind Press
QNH
hPa
Press
MSL
hPa
Rain since
9am
mm
Dir  Spd
km/h
Gust
km/h
Spd
kts
Gust
kts
24/11:30pm 31.9 32.8 19.2 47 8.4 N 13 19 7 10 1006.8 1004.9 0.0
24/11:00pm 32.2 32.1 18.8 45 8.8 NNE 17 22 9 12 1006.8 1004.9 0.0
24/10:30pm 32.5 31.8 18.3 43 9.3 NNE 19 26 10 14 1006.6 1004.7 0.0
24/10:00pm 32.9 31.7 17.5 39 10.0 NNE 20 28 11 15 1006.3 1004.4 0.0
24/09:30pm 33.2 32.2 16.5 36 10.7 NNE 17 20 9 11 1005.9 1004.1 0.0
24/09:00pm 33.4 33.7 17.1 37 10.5 NNE 11 15 6 8 1005.5 1003.7 0.0
24/08:30pm 33.8 34.3 16.6 35 11.0 N 9 13 5 7 1005.0 1003.2 0.0
24/08:00pm 34.5 34.4 15.9 33 11.8 NNE 11 13 6 7 1004.7 1002.9 0.0
24/07:30pm 35.1 34.2 15.9 31 12.2 NNE 15 20 8 11 1004.4 1002.6 0.0
24/07:00pm 35.7 34.1 15.9 30 12.7 N 19 24 10 13 1004.2 1002.4 0.0
24/06:30pm 36.1 35.4 16.3 31 12.7 NNE 15 20 8 11 1004.0 1002.2 0.0
24/06:00pm 36.4 35.4 16.5 30 12.9 NNE 17 24 9 13 1003.9 1002.1 0.0
24/05:30pm 37.0 37.0 17.1 31 12.9 NNE 13 19 7 10 1003.8 1002.0 0.0
24/05:00pm 36.8 36.3 15.8 28 13.5 NNE 13 22 7 12 1003.9 1002.1 0.0
24/04:30pm 36.6 36.0 15.7 29 13.3 NE 13 20 7 11 1004.2 1002.4 0.0
24/04:00pm 36.6 34.9 15.7 29 13.4 NE 19 26 10 14 1004.6 1002.8 0.0
24/03:30pm 36.5 35.9 16.6 30 12.8 NNE 15 26 8 14 1005.1 1003.3 0.0
24/03:00pm 36.4 35.8 17.5 32 12.4 NNE 17 26 9 14 1005.6 1003.8 0.0
24/02:30pm 36.1 36.5 17.3 33 12.2 N 11 24 6 13 1006.0 1004.2 0.0
24/02:00pm 36.1 35.6 16.8 32 12.5 NNE 15 32 8 17 1006.6 1004.7 0.0
24/01:30pm 35.5 34.2 15.8 31 12.5 NE 17 30 9 16 1007.0 1005.2 0.0
24/01:00pm 35.4 36.0 17.6 35 11.6 N 11 24 6 13 1007.4 1005.6 0.0
24/12:30pm 35.3 35.2 18.8 37 10.9 N 17 22 9 12 1008.0 1006.2 0.0
24/12:00pm 34.6 34.4 18.6 38 10.6 NNE 17 28 9 15 1008.6 1006.8 0.0
24/11:30am 34.1 33.8 17.3 36 10.9 N 15 24 8 13 1008.9 1007.1 0.0
24/11:00am 33.5 33.1 18.0 39 10.1 N 17 28 9 15 1009.2 1007.4 0.0
24/10:30am 32.7 32.3 18.1 42 9.5 NNE 17 24 9 13 1009.4 1007.6 0.0
24/10:00am 32.0 32.4 18.2 43 9.0 N 13 20 7 11 1009.5 1007.7 0.0
24/09:30am 30.6 32.8 20.5 54 6.8 NNW 9 15 5 8 1009.5 1007.7 0.0
24/09:00am 29.9 32.4 21.0 59 6.0 NNW 9 13 5 7 1009.5 1007.7 0.0
24/08:30am 29.0 31.1 21.0 62 5.4 NNW 11 17 6 9 1009.5 1007.7 0.0
24/08:00am 28.0 30.3 21.3 67 4.5 NNW 11 20 6 11 1009.4 1007.6 0.0
24/07:30am 27.3 30.2 21.8 72 3.7 N 9 13 5 7 1009.1 1007.3 0.0
24/07:00am 26.5 30.0 22.1 77 3.0 N 7 11 4 6 1008.7 1006.9 0.0
24/06:30am 26.2 29.9 22.5 80 2.5 N 7 9 4 5 1008.3 1006.5 0.0
24/06:00am 26.5 30.1 22.3 78 2.9 N 7 9 4 5 1007.8 1006.0 0.0
24/05:30am 26.9 30.2 22.5 77 3.0 N 9 11 5 6 1007.4 1005.6 0.0
24/05:00am 27.2 30.5 22.6 76 3.1 N 9 13 5 7 1007.2 1005.4 0.0
24/04:30am 27.6 30.5 22.5 74 3.5 N 11 15 6 8 1007.0 1005.2 0.0
24/04:00am 27.9 30.9 22.6 73 3.6 N 11 17 6 9 1007.0 1005.2 0.0
24/03:30am 28.3 31.1 22.3 70 4.1 N 11 15 6 8 1007.1 1005.3 0.0
24/03:00am 28.3 31.5 22.3 70 4.1 N 9 11 5 6 1007.3 1005.5 0.0
24/02:30am 28.8 31.5 22.1 67 4.6 N 11 13 6 7 1007.5 1005.7 0.0
24/02:00am 29.0 31.6 22.0 66 4.8 NNE 11 13 6 7 1007.8 1006.0 0.0
24/01:30am 29.3 31.8 21.8 64 5.1 N 11 17 6 9 1008.1 1006.3 0.0
24/01:00am 29.6 31.8 21.8 63 5.3 NNE 13 17 7 9 1008.4 1006.6 0.0
24/12:30am 29.9 31.8 21.3 60 5.8 N 13 19 7 10 1008.8 1007.0 0.0
24/12:00am 29.9 31.6 21.0 59 6.0 N 13 20 7 11 1009.0 1007.2 0.0
 
Date/Time
EST
Temp
°C
App
Temp
°C
Dew
Point
°C
Rel
Hum
%
Delta-T
°C
Wind Press
QNH
hPa
Press
MSL
hPa
Rain since
9am
mm
Dir  Spd
km/h
Gust
km/h
Spd
kts
Gust
kts
23/11:30pm 29.9 32.0 21.0 59 6.0 N 11 15 6 8 1008.8 1007.0 0.0
23/11:00pm 30.2 31.9 21.0 58 6.2 NNE 13 17 7 9 1008.8 1007.0 0.0
23/10:30pm 30.7 31.9 20.6 54 6.8 NNE 15 20 8 11 1008.6 1006.8 0.0
23/10:00pm 31.1 31.2 20.4 53 7.2 NNE 20 30 11 16 1008.4 1006.6 0.0
23/09:30pm 31.7 30.5 20.0 50 7.8 NNE 26 41 14 22 1008.1 1006.3 0.0
23/09:20pm 32.2 31.6 19.8 48 8.3 NNE 22 41 12 22 1007.9 1006.1 0.0
23/09:00pm 33.0 34.5 19.8 45 8.8 NNE 11 13 6 7 1007.3 1005.5 0.0
23/08:30pm 33.6 35.1 18.9 41 9.7 N 9 11 5 6 1007.0 1005.2 0.0
23/08:00pm 34.2 35.1 18.3 39 10.4 NE 11 15 6 8 1006.8 1004.9 0.0
23/07:30pm 34.6 35.8 18.2 37 10.8 NE 9 13 5 7 1006.5 1004.6 0.0
23/07:00pm 35.2 35.5 17.9 36 11.3 NE 13 19 7 10 1006.2 1004.3 0.0
23/06:30pm 35.8 36.1 17.9 34 11.7 NNE 13 20 7 11 1005.7 1003.9 0.0
23/06:00pm 36.0 37.0 18.6 36 11.5 NNE 11 17 6 9 1005.6 1003.8 0.0
23/05:30pm 36.1 36.7 18.7 36 11.5 NNE 13 24 7 13 1005.6 1003.8 0.0
23/05:00pm 35.8 35.6 18.4 35 11.5 N 17 24 9 13 1005.4 1003.6 0.0
23/04:30pm 36.1 35.6 16.8 32 12.5 NE 15 22 8 12 1005.6 1003.8 0.0
23/04:00pm 36.8 36.9 18.4 34 12.2 NE 15 24 8 13 1005.8 1004.0 0.0
23/03:30pm 36.3 36.6 18.8 35 11.6 NNE 15 24 8 13 1006.3 1004.4 0.0
23/03:00pm 36.0 37.6 19.9 39 10.9 N 11 17 6 9 1006.6 1004.7 0.0
23/02:30pm 35.5 38.2 20.6 41 10.1 NW 7 15 4 8 1006.8 1004.9 0.0
23/02:00pm 35.2 36.3 19.6 40 10.5 N 13 20 7 11 1007.5 1005.7 0.0
23/01:30pm 34.0 35.2 20.0 43 9.4 NNE 13 26 7 14 1008.2 1006.4 0.0
23/01:00pm 33.6 34.8 20.0 44 9.1 N 13 24 7 13 1008.6 1006.8 0.0
23/12:30pm 33.9 35.6 21.7 49 8.4 NE 15 28 8 15 1009.1 1007.3 0.0
23/12:00pm 34.0 35.6 20.7 45 9.0 NNE 13 24 7 13 1009.4 1007.6 0.0
23/11:30am 32.8 36.0 22.3 54 7.2 NNW 9 17 5 9 1009.8 1008.0 0.0
23/11:00am 31.8 35.6 22.8 59 6.2 NNW 7 13 4 7 1010.0 1008.2 0.0
23/10:30am 31.3 34.8 22.9 61 5.8 N 9 15 5 8 1010.1 1008.3 0.0
23/10:00am 30.0 33.5 22.9 65 4.9 NW 9 13 5 7 1010.2 1008.4 0.0
23/09:30am 29.0 32.6 23.0 70 4.1 NNW 9 15 5 8 1010.3 1008.5 0.0
23/09:00am 28.2 31.4 23.1 74 3.5 NNW 11 17 6 9 1010.1 1008.3 0.0
23/08:30am 27.1 30.9 22.7 77 3.0 NNW 7 11 4 6 1010.0 1008.2 0.0
23/08:00am 26.2 29.7 22.1 78 2.8 NNE 7 9 4 5 1009.7 1007.9 0.0
23/07:30am 25.2 28.7 22.1 83 2.1 NE 7 11 4 6 1009.2 1007.4 0.0
23/07:00am 24.3 27.9 22.0 87 1.5 NE 6 7 3 4 1008.9 1007.1 0.0
23/06:30am 24.0 27.6 22.1 89 1.3 ENE 6 7 3 4 1008.7 1006.9 0.0
23/06:00am 23.8 28.5 21.9 89 1.3 CALM 0 0 0 0 1008.2 1006.4 0.0
23/05:30am 24.1 28.1 22.0 88 1.4 NNE 4 6 2 3 1008.0 1006.2 0.0
23/05:00am 24.5 27.4 21.8 85 1.8 NNE 9 13 5 7 1007.7 1005.9 0.0
23/04:30am 24.6 29.4 22.1 86 1.7 CALM 0 0 0 0 1007.4 1005.6 0.0
23/04:00am 24.6 29.2 21.7 84 1.9 CALM 0 0 0 0 1007.4 1005.6 0.0
23/03:30am 24.7 28.2 21.8 84 1.9 N 6 7 3 4 1007.3 1005.5 0.0
23/03:00am 24.7 28.2 21.8 84 1.9 NNW 6 9 3 5 1007.3 1005.5 0.0
23/02:30am 24.9 27.8 21.8 83 2.1 N 9 13 5 7 1007.5 1005.7 0.0
23/02:00am 24.8 27.6 21.5 82 2.2 NNW 9 13 5 7 1007.7 1005.9 0.0
23/01:30am 24.9 27.2 21.4 81 2.3 NNW 11 17 6 9 1008.1 1006.3 0.0
23/01:00am 25.1 26.4 21.6 81 2.3 N 17 26 9 14 1008.5 1006.7 0.0
23/12:30am 25.4 26.2 21.3 78 2.7 N 19 28 10 15 1008.8 1007.0 0.0
23/12:00am 26.0 26.3 20.8 73 3.5 NNE 20 30 11 16 1009.3 1007.5 0.0

Other formats

Comma delimited format used in spreadsheet applications
http://www.bom.gov.au/fwo/IDQ60801/IDQ60801.94255.axf

JavaScript Object Notation format (JSON) in row-major order
http://www.bom.gov.au/fwo/IDQ60801/IDQ60801.94255.json

Data quality

Most of these data are generated automatically and are frequently updated. Quality checks on data are not normally performed. It is possible for incorrect values to appear. Refer to information at About Latest Weather Observations and please check the disclaimer before using these data.